createdAt,value
2019-04-29T00:00:54.024Z,12.47
2019-04-29T00:03:36.514Z,11.97
2019-04-29T00:10:03.299Z,11.13
2019-04-29T00:13:07.654Z,14.23
2019-04-29T00:15:31.780Z,14.83
2019-04-29T00:18:05.047Z,15.20
2019-04-29T00:20:41.290Z,15.87
2019-04-29T00:23:10.107Z,16.13
2019-04-29T00:25:38.864Z,15.53
2019-04-29T00:28:07.754Z,17.00
2019-04-29T00:30:36.557Z,18.53
2019-04-29T00:33:05.300Z,18.40
2019-04-29T00:35:33.960Z,17.30
2019-04-29T00:38:10.400Z,18.10
2019-04-29T00:40:46.782Z,18.17
2019-04-29T00:43:23.146Z,17.00
2019-04-29T00:45:51.830Z,18.47
2019-04-29T00:48:25.682Z,19.60
2019-04-29T00:51:19.886Z,18.73
2019-04-29T00:53:53.879Z,17.97
2019-04-29T00:56:22.598Z,17.87
2019-04-29T00:59:00.644Z,17.53
2019-04-29T01:04:32.227Z,18.27
2019-04-29T01:10:42.881Z,19.87
2019-04-29T01:13:24.068Z,19.80
2019-04-29T01:25:20.076Z,20.53
2019-04-29T01:27:53.376Z,20.33
2019-04-29T01:43:51.983Z,18.77
2019-04-29T01:46:18.213Z,18.97
2019-04-29T01:48:49.818Z,19.03
2019-04-29T01:51:41.490Z,18.63
2019-04-29T01:54:37.882Z,19.20
2019-04-29T01:57:21.719Z,18.40
2019-04-29T02:00:04.252Z,18.20
2019-04-29T02:02:33.198Z,18.57
2019-04-29T02:05:02.123Z,18.40
2019-04-29T02:07:30.700Z,18.73
2019-04-29T02:10:10.352Z,18.60
2019-04-29T02:13:11.130Z,18.70
2019-04-29T02:15:31.325Z,17.83
2019-04-29T02:18:07.946Z,18.67
2019-04-29T02:20:36.484Z,18.17
2019-04-29T02:23:19.732Z,17.83
2019-04-29T02:25:58.400Z,19.20
2019-04-29T02:28:28.962Z,18.20
2019-04-29T02:30:59.649Z,17.47
2019-04-29T02:38:28.519Z,17.57
2019-04-29T02:40:49.187Z,17.63
2019-04-29T02:43:22.541Z,16.23
2019-04-29T02:45:51.554Z,17.20
2019-04-29T02:48:20.365Z,17.80
2019-04-29T02:50:48.951Z,16.90
2019-04-29T02:53:17.800Z,16.37
2019-04-29T02:55:48.228Z,15.23
2019-04-29T02:58:18.797Z,17.00
2019-04-29T03:01:07.237Z,16.47
2019-04-29T03:03:40.358Z,17.87
2019-04-29T03:06:09.157Z,17.03
2019-04-29T03:08:38.015Z,16.50
2019-04-29T03:14:17.539Z,15.37
2019-04-29T03:17:02.031Z,14.53
2019-04-29T03:19:51.874Z,15.17
2019-04-29T03:22:52.770Z,15.03
2019-04-29T03:25:49.336Z,16.30
2019-04-29T03:28:43.347Z,13.93
2019-04-29T03:31:19.550Z,16.63
2019-04-29T03:36:43.754Z,17.00
2019-04-29T03:39:36.451Z,19.30
2019-04-29T03:42:11.923Z,21.37
2019-04-29T03:44:44.776Z,19.77
2019-04-29T03:47:13.506Z,18.23
2019-04-29T03:49:42.092Z,19.27
2019-04-29T03:58:27.531Z,17.97
2019-04-29T04:01:38.645Z,17.47
2019-04-29T04:04:14.761Z,16.83
2019-04-29T04:07:04.170Z,17.47
2019-04-29T04:09:45.094Z,18.33
2019-04-29T04:12:09.303Z,16.80
2019-04-29T04:14:38.103Z,51.30
2019-04-29T04:17:20.283Z,16.93
2019-04-29T04:19:47.492Z,15.63
2019-04-29T04:22:16.365Z,12.77
2019-04-29T04:24:45.126Z,13.17
2019-04-29T04:27:13.777Z,13.53
2019-04-29T04:29:42.466Z,14.13
2019-04-29T04:32:23.822Z,12.33
2019-04-29T04:35:04.716Z,11.70
2019-04-29T04:37:33.645Z,10.80
2019-04-29T04:40:05.598Z,11.80
2019-04-29T04:43:50.111Z,11.37
2019-04-29T05:05:37.599Z,11.43
2019-04-29T05:08:07.000Z,12.47
2019-04-29T05:10:35.777Z,12.00
2019-04-29T05:13:06.053Z,13.57
2019-04-29T05:15:34.934Z,17.53
2019-04-29T05:18:20.336Z,13.97
2019-04-29T05:20:49.144Z,13.30
2019-04-29T05:23:17.790Z,13.67
2019-04-29T05:25:46.777Z,13.77
2019-04-29T05:28:15.579Z,14.73
2019-04-29T05:30:45.902Z,14.23
2019-04-29T05:33:16.103Z,13.97
2019-04-29T05:35:56.894Z,18.23
2019-04-29T05:38:32.647Z,18.13
2019-04-29T05:41:02.351Z,14.97
2019-04-29T05:43:35.519Z,14.83
2019-04-29T05:46:23.813Z,13.67
2019-04-29T05:48:52.651Z,14.07
2019-04-29T05:51:35.041Z,13.77
2019-04-29T05:54:08.033Z,11.60
2019-04-29T05:56:36.815Z,13.87
2019-04-29T05:59:08.438Z,12.47
2019-04-29T06:01:35.943Z,13.47
2019-04-29T06:04:04.808Z,12.60
2019-04-29T06:06:33.539Z,12.07
2019-04-29T06:09:02.289Z,12.20
2019-04-29T06:11:31.083Z,11.90
2019-04-29T06:13:59.769Z,11.53
2019-04-29T06:16:31.511Z,13.13
2019-04-29T06:19:04.104Z,12.70
2019-04-29T06:21:32.051Z,14.40
2019-04-29T06:24:04.469Z,14.17
2019-04-29T06:26:31.247Z,14.23
2019-04-29T06:29:00.053Z,15.17
2019-04-29T06:31:28.820Z,14.30
2019-04-29T06:34:00.545Z,14.97
2019-04-29T06:36:27.621Z,15.63
2019-04-29T06:38:56.185Z,16.53
2019-04-29T06:41:24.661Z,14.20
2019-04-29T06:43:55.996Z,17.47
2019-04-29T06:46:23.618Z,14.80
2019-04-29T06:48:52.209Z,17.03
2019-04-29T06:51:20.936Z,20.00
2019-04-29T06:53:49.721Z,21.20
2019-04-29T06:56:18.469Z,21.20
2019-04-29T06:58:49.073Z,19.40
2019-04-29T07:01:17.405Z,18.10
2019-04-29T07:03:46.141Z,18.87
2019-04-29T07:06:14.995Z,19.10
2019-04-29T07:08:53.684Z,18.03
2019-04-29T07:11:22.502Z,21.80
2019-04-29T07:13:53.446Z,21.70
2019-04-29T07:16:21.776Z,21.47
2019-04-29T07:18:53.792Z,22.27
2019-04-29T07:21:22.262Z,24.03
2019-04-29T07:23:51.039Z,23.23
2019-04-29T07:26:19.795Z,22.57
2019-04-29T07:28:48.701Z,22.90
2019-04-29T07:31:18.741Z,22.87
2019-04-29T07:33:47.498Z,22.90
2019-04-29T07:36:22.767Z,24.33
2019-04-29T07:38:51.733Z,29.30
2019-04-29T07:41:23.095Z,32.37
2019-04-29T07:43:51.963Z,32.40
2019-04-29T07:46:28.200Z,31.03
2019-04-29T07:49:01.800Z,30.33
2019-04-29T07:51:27.315Z,30.07
2019-04-29T07:53:56.094Z,29.20
2019-04-29T07:56:24.861Z,28.67
2019-04-29T07:58:53.675Z,31.10
2019-04-29T08:01:24.401Z,30.40
2019-04-29T08:03:52.913Z,31.87
2019-04-29T08:06:22.587Z,33.63
2019-04-29T08:08:55.512Z,35.40
2019-04-29T08:11:21.658Z,35.33
2019-04-29T08:13:51.591Z,35.37
2019-04-29T08:16:20.271Z,35.57
2019-04-29T08:18:49.570Z,35.20
2019-04-29T08:21:19.337Z,35.73
2019-04-29T08:23:48.108Z,33.70
2019-04-29T08:26:16.827Z,33.93
2019-04-29T08:28:45.506Z,34.67
2019-04-29T08:31:16.682Z,32.80
2019-04-29T08:33:46.829Z,31.77
2019-04-29T08:36:15.165Z,34.07
2019-04-29T08:38:43.821Z,33.90
2019-04-29T08:41:12.562Z,33.17
2019-04-29T08:43:45.615Z,30.20
2019-04-29T08:46:15.993Z,29.77
2019-04-29T08:48:45.979Z,23.27
2019-04-29T08:51:15.015Z,29.27
2019-04-29T08:53:43.622Z,30.17
2019-04-29T08:56:12.303Z,29.93
2019-04-29T08:58:44.275Z,30.47
2019-04-29T09:01:11.557Z,30.00
2019-04-29T09:03:41.019Z,29.27
2019-04-29T09:06:09.819Z,28.83
2019-04-29T09:08:53.498Z,28.40
2019-04-29T09:11:12.754Z,26.53
2019-04-29T09:13:39.968Z,27.27
2019-04-29T09:16:09.364Z,24.77
2019-04-29T09:18:38.109Z,25.77
2019-04-29T09:21:08.556Z,27.07
2019-04-29T09:23:38.356Z,26.00
2019-04-29T09:26:24.461Z,27.40
2019-04-29T09:28:53.296Z,26.70
2019-04-29T09:31:21.991Z,27.73
2019-04-29T09:33:52.306Z,27.07
2019-04-29T09:36:21.076Z,25.37
2019-04-29T09:38:49.913Z,23.47
2019-04-29T09:41:30.606Z,24.83
2019-04-29T09:44:06.865Z,25.13
2019-04-29T09:46:36.896Z,23.13
2019-04-29T09:49:05.515Z,25.17
2019-04-29T09:51:34.229Z,23.33
2019-04-29T09:54:02.834Z,22.47
2019-04-29T09:56:34.538Z,21.87
2019-04-29T09:59:19.875Z,21.87
2019-04-29T10:01:50.481Z,23.03
2019-04-29T10:04:22.181Z,23.20
2019-04-29T10:06:52.397Z,23.10
2019-04-29T10:09:21.413Z,20.67
2019-04-29T10:11:50.108Z,20.17
2019-04-29T10:14:18.901Z,19.70
2019-04-29T10:17:06.763Z,20.33
2019-04-29T10:19:43.022Z,21.87
2019-04-29T10:22:11.744Z,21.03
2019-04-29T10:24:40.259Z,22.17
2019-04-29T10:27:08.949Z,24.30
2019-04-29T10:29:38.325Z,24.87
2019-04-29T10:32:08.766Z,25.23
2019-04-29T10:34:37.456Z,24.60
2019-04-29T10:37:07.561Z,24.20
2019-04-29T10:39:37.916Z,25.60
2019-04-29T10:42:08.387Z,23.27
2019-04-29T10:44:44.396Z,22.97
2019-04-29T10:47:20.753Z,21.10
2019-04-29T10:49:50.943Z,22.57
2019-04-29T10:52:19.591Z,22.03
2019-04-29T10:54:51.625Z,20.70
2019-04-29T10:57:20.080Z,20.53
2019-04-29T10:59:50.494Z,20.27
2019-04-29T11:02:29.726Z,21.20
2019-04-29T11:05:07.851Z,21.20
2019-04-29T11:07:38.236Z,20.97
2019-04-29T11:10:24.807Z,19.67
2019-04-29T11:12:46.454Z,19.40
2019-04-29T11:15:15.882Z,20.20
2019-04-29T11:17:46.142Z,18.90
2019-04-29T11:20:15.937Z,18.87
2019-04-29T11:22:56.096Z,18.30
2019-04-29T11:25:26.627Z,18.73
2019-04-29T11:27:57.231Z,20.87
2019-04-29T11:30:30.159Z,20.23
2019-04-29T11:33:04.710Z,20.90
2019-04-29T11:35:35.675Z,21.50
2019-04-29T11:38:06.967Z,21.53
2019-04-29T11:40:43.409Z,21.43
2019-04-29T11:43:10.841Z,20.83
2019-04-29T11:45:41.117Z,20.57
2019-04-29T11:48:11.604Z,21.07
2019-04-29T11:50:57.191Z,20.50
2019-04-29T11:53:25.980Z,21.63
2019-04-29T11:55:56.924Z,23.87
2019-04-29T12:26:27.047Z,22.27
2019-04-29T12:29:17.806Z,23.50
2019-04-29T13:19:12.462Z,24.30
2019-04-29T13:21:39.594Z,22.90
2019-04-29T13:24:21.860Z,22.45
2019-04-29T13:26:42.473Z,22.73
2019-04-29T13:29:09.339Z,20.40
2019-04-29T13:31:39.207Z,20.27
2019-04-29T13:34:24.371Z,20.83
2019-04-29T13:36:40.224Z,20.33
2019-04-29T13:39:09.247Z,18.00
2019-04-29T13:41:55.607Z,17.63
2019-04-29T13:44:08.389Z,17.25
2019-04-29T13:46:56.622Z,17.40
2019-04-29T13:49:26.974Z,16.67
2019-04-29T13:51:57.380Z,17.13
2019-04-29T13:54:25.888Z,17.52
2019-04-29T13:56:56.674Z,18.77
2019-04-29T13:59:26.620Z,19.53
2019-04-29T14:02:01.422Z,22.10
2019-04-29T14:04:28.844Z,22.00
2019-04-29T14:06:57.811Z,22.65
2019-04-29T14:09:26.707Z,22.30
2019-04-29T14:12:02.132Z,22.80
2019-04-29T14:14:28.132Z,23.77
2019-04-29T14:17:17.056Z,23.62
2019-04-29T14:19:40.294Z,23.73
2019-04-29T14:21:56.543Z,24.77
2019-04-29T14:24:25.134Z,25.67
2019-04-29T14:26:53.706Z,26.85
2019-04-29T14:29:23.006Z,27.63
2019-04-29T14:31:59.093Z,27.90
2019-04-29T14:34:34.840Z,27.63
2019-04-29T14:37:19.577Z,28.27
2019-04-29T14:39:37.007Z,27.73
2019-04-29T14:42:10.564Z,28.40
2019-04-29T14:44:40.860Z,25.63
2019-04-29T14:47:24.166Z,25.87
2019-04-29T14:49:57.360Z,27.53
2019-04-29T14:52:26.008Z,27.57
2019-04-29T14:54:55.182Z,28.03
2019-04-29T14:57:23.882Z,27.03
2019-04-29T14:59:52.826Z,29.07
2019-04-29T15:02:23.332Z,27.47
2019-04-29T15:05:07.321Z,28.50
2019-04-29T15:07:38.373Z,28.70
2019-04-29T15:10:09.788Z,30.20
2019-04-29T15:13:19.585Z,30.60
2019-04-29T15:15:45.151Z,30.13
2019-04-29T15:18:38.704Z,30.63
2019-04-29T15:20:56.878Z,31.47
2019-04-29T15:23:28.774Z,32.03
2019-04-29T15:26:03.347Z,31.57
2019-04-29T15:28:35.650Z,31.97
2019-04-29T15:31:17.058Z,32.50
2019-04-29T15:33:42.854Z,33.97
2019-04-29T15:36:11.495Z,32.50
2019-04-29T15:38:40.221Z,31.20
2019-04-29T15:41:11.127Z,32.37
2019-04-29T15:43:47.229Z,31.80
2019-04-29T15:46:11.335Z,31.33
2019-04-29T15:48:40.642Z,31.37
2019-04-29T15:51:13.770Z,30.77
2019-04-29T15:53:39.796Z,32.00
2019-04-29T15:56:27.078Z,31.43
2019-04-29T15:58:39.576Z,30.80
2019-04-29T16:01:14.643Z,29.23
2019-04-29T16:03:39.717Z,31.70
2019-04-29T16:06:21.246Z,33.27
2019-04-29T16:08:58.673Z,33.30
2019-04-29T16:11:41.842Z,34.17
2019-04-29T16:14:12.176Z,33.17
2019-04-29T16:16:40.978Z,34.87
2019-04-29T16:19:10.553Z,34.60
2019-04-29T16:21:41.542Z,34.40
2019-04-29T16:24:25.626Z,34.80
2019-04-29T16:26:40.885Z,33.37
2019-04-29T16:29:13.418Z,34.93
2019-04-29T16:31:39.941Z,35.60
2019-04-29T16:34:08.798Z,33.33
2019-04-29T16:36:37.490Z,32.63
2019-04-29T16:39:06.659Z,31.20
2019-04-29T16:41:38.411Z,32.93
2019-04-29T16:44:34.915Z,32.60
2019-04-29T16:46:51.486Z,35.47
2019-04-29T16:49:20.770Z,30.50
2019-04-29T16:51:53.444Z,32.67
2019-04-29T16:54:28.228Z,28.53
2019-04-29T16:56:53.080Z,31.77
2019-04-29T16:59:21.944Z,28.70
2019-04-29T17:01:52.158Z,28.50
2019-04-29T17:04:25.200Z,28.20
2019-04-29T17:07:12.201Z,39.93
2019-04-29T17:09:51.520Z,32.43
2019-04-29T17:12:20.505Z,26.50
2019-04-29T17:15:04.140Z,26.10
2019-04-29T17:19:56.957Z,26.30
2019-04-29T17:22:30.330Z,28.23
2019-04-29T17:25:00.590Z,26.40
2019-04-29T17:27:35.195Z,25.30
2019-04-29T17:30:09.700Z,25.23
2019-04-29T17:35:16.340Z,25.03
2019-04-29T17:35:16.598Z,27.10
2019-04-29T17:35:21.138Z,24.90
2019-04-29T17:37:44.438Z,24.73
2019-04-29T17:40:14.472Z,23.57
2019-04-29T17:42:44.935Z,23.60
2019-04-29T17:45:26.944Z,23.90
2019-04-29T17:47:49.126Z,24.13
2019-04-29T17:50:30.607Z,24.70
2019-04-29T17:52:52.804Z,24.77
2019-04-29T17:55:38.045Z,25.33
2019-04-29T17:58:05.931Z,22.80
2019-04-29T18:00:44.654Z,23.50
2019-04-29T18:03:19.166Z,22.03
2019-04-29T18:06:05.455Z,22.00
2019-04-29T18:08:41.727Z,22.23
2019-04-29T18:14:41.349Z,21.17
2019-04-29T18:17:08.850Z,19.70
2019-04-29T18:19:56.862Z,18.90
2019-04-29T18:22:39.207Z,19.27
2019-04-29T18:25:31.392Z,19.00
2019-04-29T18:28:01.944Z,18.43
2019-04-29T18:30:35.954Z,18.80
2019-04-29T18:33:10.735Z,17.83
2019-04-29T18:35:46.749Z,18.13
2019-04-29T18:38:21.081Z,17.57
2019-04-29T18:40:51.662Z,17.70
2019-04-29T18:43:26.431Z,16.53
2019-04-29T18:45:59.311Z,16.87
2019-04-29T18:48:35.358Z,17.23
2019-04-29T18:51:07.391Z,16.93
2019-04-29T18:53:42.022Z,16.17
2019-04-29T18:56:16.196Z,15.57
2019-04-29T18:58:50.272Z,15.07
2019-04-29T19:01:23.977Z,15.07
2019-04-29T19:03:56.555Z,15.23
2019-04-29T19:06:25.685Z,14.67
2019-04-29T19:09:01.468Z,13.73
2019-04-29T19:11:32.111Z,13.93
2019-04-29T19:13:59.629Z,13.97
2019-04-29T19:16:31.586Z,13.77
2019-04-29T19:19:07.961Z,13.30
2019-04-29T19:21:40.636Z,14.07
2019-04-29T19:24:16.192Z,13.93
2019-04-29T19:26:45.008Z,14.87
2019-04-29T19:29:15.606Z,13.80
2019-04-29T19:31:48.597Z,12.40
2019-04-29T19:34:18.498Z,12.30
2019-04-29T19:36:45.216Z,12.27
2019-04-29T19:39:16.866Z,12.27
2019-04-29T19:41:49.334Z,12.37
2019-04-29T19:44:18.097Z,11.87
2019-04-29T19:46:52.244Z,12.27
2019-04-29T19:49:20.855Z,12.30
2019-04-29T19:51:49.881Z,11.23
2019-04-29T19:54:24.612Z,11.77
2019-04-29T19:56:49.317Z,11.53
2019-04-29T19:59:18.441Z,11.57
2019-04-29T20:01:51.257Z,12.00
2019-04-29T20:04:23.226Z,11.47
2019-04-29T20:06:58.424Z,11.30
2019-04-29T20:09:28.696Z,11.90
2019-04-29T20:11:56.805Z,11.77
2019-04-29T20:14:30.415Z,11.80
2019-04-29T20:17:09.546Z,11.20
2019-04-29T20:19:38.788Z,11.63
2019-04-29T20:22:16.059Z,11.87
2019-04-29T20:24:49.674Z,11.83
2019-04-29T20:27:16.783Z,12.07
2019-04-29T20:29:47.836Z,12.10
2019-04-29T20:32:17.848Z,10.87
2019-04-29T20:34:46.912Z,11.17
2019-04-29T20:37:19.629Z,10.80
2019-04-29T20:39:46.709Z,10.60
2019-04-29T20:42:16.016Z,11.13
2019-04-29T20:44:49.383Z,11.00
2019-04-29T20:47:22.865Z,11.63
2019-04-29T20:49:48.947Z,10.63
2019-04-29T20:52:22.445Z,9.80
2019-04-29T20:54:57.835Z,10.43
2019-04-29T20:57:24.867Z,10.43
2019-04-29T21:00:01.551Z,11.23
2019-04-29T21:02:35.296Z,10.87
2019-04-29T21:05:23.112Z,11.87
2019-04-29T21:08:02.540Z,11.77
2019-04-29T21:10:25.908Z,11.70
2019-04-29T21:13:16.289Z,12.37
2019-04-29T21:22:52.526Z,9.93
2019-04-29T21:28:43.404Z,10.70
